createdAt,value
2023-03-17T00:03:26.953Z,2.70
2023-03-17T00:08:29.909Z,2.40
2023-03-17T00:13:32.171Z,2.30
2023-03-17T00:18:35.577Z,2.47
2023-03-17T00:23:37.238Z,2.17
2023-03-17T00:28:39.290Z,3.80
2023-03-17T00:33:41.798Z,2.27
2023-03-17T00:38:46.015Z,2.70
2023-03-17T00:43:48.089Z,2.40
2023-03-17T00:48:49.873Z,2.53
2023-03-17T00:53:51.944Z,2.53
2023-03-17T00:58:54.869Z,2.23
2023-03-17T01:03:57.172Z,3.83
2023-03-17T01:08:59.037Z,3.03
2023-03-17T01:14:00.955Z,2.40
2023-03-17T01:19:05.714Z,2.37
2023-03-17T01:24:08.456Z,3.37
2023-03-17T01:29:10.223Z,3.40
2023-03-17T01:34:12.642Z,2.30
2023-03-17T01:39:15.274Z,2.30
2023-03-17T01:44:18.606Z,3.07
2023-03-17T01:49:26.064Z,4.17
2023-03-17T01:54:40.130Z,2.43
2023-03-17T01:59:53.762Z,2.60
2023-03-17T02:04:55.452Z,2.63
2023-03-17T02:09:58.148Z,2.40
2023-03-17T02:14:59.819Z,2.90
2023-03-17T02:20:17.210Z,2.60
2023-03-17T02:25:20.466Z,2.80
2023-03-17T02:30:24.143Z,2.30
2023-03-17T02:35:25.879Z,3.03
2023-03-17T02:40:29.058Z,3.20
2023-03-17T02:45:31.291Z,3.13
2023-03-17T02:50:33.074Z,3.80
2023-03-17T03:02:17.791Z,3.00
2023-03-17T03:07:19.632Z,4.83
2023-03-17T03:12:21.230Z,4.13
2023-03-17T03:17:23.025Z,2.90
2023-03-17T03:22:24.624Z,2.70
2023-03-17T03:27:26.770Z,3.00
2023-03-17T03:32:28.852Z,3.20
2023-03-17T03:37:30.613Z,3.30
2023-03-17T03:42:32.529Z,2.90
2023-03-17T03:47:34.378Z,3.00
2023-03-17T03:52:36.412Z,2.80
2023-03-17T03:57:38.126Z,3.43
2023-03-17T04:02:41.937Z,2.97
2023-03-17T04:07:43.793Z,3.60
2023-03-17T04:12:46.814Z,5.20
2023-03-17T04:17:48.638Z,3.87
2023-03-17T04:22:51.792Z,3.47
2023-03-17T04:27:54.623Z,3.27
2023-03-17T04:32:56.332Z,5.33
2023-03-17T04:37:58.308Z,3.43
2023-03-17T04:43:01.894Z,3.37
2023-03-17T04:48:05.936Z,4.30
2023-03-17T04:53:09.133Z,3.37
2023-03-17T04:58:15.497Z,2.93
2023-03-17T05:03:27.679Z,3.40
2023-03-17T05:08:30.387Z,3.20
2023-03-17T05:13:32.229Z,4.27
2023-03-17T05:18:34.363Z,4.50
2023-03-17T05:23:36.209Z,5.57
2023-03-17T05:28:38.245Z,3.80
2023-03-17T05:33:40.908Z,3.17
2023-03-17T05:38:43.844Z,4.90
2023-03-17T05:43:45.663Z,2.93
2023-03-17T05:48:47.784Z,3.23
2023-03-17T05:53:50.901Z,3.30
2023-03-17T05:58:52.610Z,4.10
2023-03-17T06:03:54.344Z,3.20
2023-03-17T06:08:56.183Z,4.13
2023-03-17T06:13:58.062Z,3.80
2023-03-17T06:18:59.991Z,3.33
2023-03-17T06:24:01.897Z,3.30
2023-03-17T06:29:04.844Z,2.80
2023-03-17T06:34:06.754Z,4.70
2023-03-17T06:39:09.557Z,3.10
2023-03-17T06:44:11.134Z,3.40
2023-03-17T06:49:16.203Z,5.13
2023-03-17T06:54:18.284Z,4.77
2023-03-17T06:59:21.790Z,5.97
2023-03-17T07:04:25.233Z,6.33
2023-03-17T07:09:27.655Z,6.37
2023-03-17T07:14:29.196Z,5.23
2023-03-17T07:19:31.308Z,5.13
2023-03-17T07:24:32.973Z,4.70
2023-03-17T07:29:35.225Z,4.80
2023-03-17T07:34:38.654Z,4.73
2023-03-17T07:39:40.319Z,6.53
2023-03-17T07:44:42.135Z,6.27
2023-03-17T07:49:44.001Z,8.63
2023-03-17T07:54:48.631Z,13.93
2023-03-17T07:59:50.730Z,14.67
2023-03-17T08:04:53.924Z,15.43
2023-03-17T08:09:56.010Z,12.83
2023-03-17T08:14:57.610Z,11.67
2023-03-17T08:19:59.442Z,8.80
2023-03-17T08:25:01.927Z,7.30
2023-03-17T08:30:04.281Z,10.47
2023-03-17T08:35:06.356Z,9.00
2023-03-17T08:40:10.068Z,14.20
2023-03-17T08:45:12.698Z,9.50
2023-03-17T08:50:18.861Z,9.02
2023-03-17T08:55:20.717Z,10.20
2023-03-17T09:00:22.704Z,10.73
2023-03-17T09:05:25.134Z,8.20
2023-03-17T09:10:26.798Z,7.67
2023-03-17T09:15:28.870Z,7.67
2023-03-17T09:20:31.537Z,6.00
2023-03-17T09:25:34.885Z,6.97
2023-03-17T09:30:36.806Z,5.97
2023-03-17T09:35:40.322Z,5.67
2023-03-17T09:40:48.803Z,5.47
2023-03-17T09:45:51.534Z,3.47
2023-03-17T09:51:10.854Z,1.70
2023-03-17T09:56:15.681Z,1.50
2023-03-17T10:01:18.673Z,1.37
2023-03-17T10:06:38.842Z,4.13
2023-03-17T10:11:47.247Z,3.07
2023-03-17T10:16:55.499Z,1.17
2023-03-17T10:22:25.251Z,1.93
2023-03-17T10:27:28.006Z,2.13
2023-03-17T10:32:31.924Z,1.30
2023-03-17T10:37:36.602Z,1.63
2023-03-17T10:43:00.067Z,2.10
2023-03-17T10:48:04.241Z,1.90
2023-03-17T10:53:27.804Z,1.83
2023-03-17T10:58:38.676Z,5.33
2023-03-17T11:03:40.411Z,5.13
2023-03-17T11:08:49.558Z,2.43
2023-03-17T11:13:51.735Z,2.10
2023-03-17T11:18:58.807Z,2.50
2023-03-17T11:24:12.927Z,3.10
2023-03-17T11:29:49.184Z,2.57
2023-03-17T11:35:23.178Z,1.37
2023-03-17T11:40:37.424Z,1.60
2023-03-17T11:45:55.305Z,2.83
2023-03-17T11:51:27.568Z,3.30
2023-03-17T11:56:42.851Z,1.73
2023-03-17T12:01:54.849Z,2.40
2023-03-17T12:07:01.815Z,2.00
2023-03-17T12:12:04.198Z,2.13
2023-03-17T12:17:20.142Z,2.57
2023-03-17T12:22:29.162Z,2.63
2023-03-17T12:27:34.612Z,1.53
2023-03-17T12:32:49.434Z,3.50
2023-03-17T12:37:51.299Z,1.90
2023-03-17T12:43:19.779Z,1.37
2023-03-17T12:48:43.072Z,1.97
2023-03-17T12:53:47.835Z,1.33
2023-03-17T12:58:53.312Z,2.77
2023-03-17T13:04:03.521Z,3.27
2023-03-17T13:09:47.167Z,1.20
2023-03-17T13:14:51.792Z,2.10
2023-03-17T13:20:12.513Z,1.73
2023-03-17T13:25:29.264Z,1.57
2023-03-17T13:30:43.910Z,2.13
2023-03-17T13:35:45.873Z,1.77
2023-03-17T13:40:56.664Z,4.40
2023-03-17T13:46:21.482Z,1.47
2023-03-17T13:51:27.751Z,2.00
2023-03-17T13:56:38.192Z,2.60
2023-03-17T14:02:02.758Z,1.77
2023-03-17T14:07:15.880Z,1.43
2023-03-17T14:12:28.720Z,3.43
2023-03-17T14:17:35.375Z,1.40
2023-03-17T14:22:45.707Z,1.50
2023-03-17T14:27:56.140Z,1.40
2023-03-17T14:33:21.499Z,2.47
2023-03-17T14:38:31.952Z,2.10
2023-03-17T14:43:35.510Z,1.20
2023-03-17T14:48:38.589Z,2.47
2023-03-17T14:53:43.080Z,3.20
2023-03-17T14:58:47.826Z,1.53
2023-03-17T15:03:57.634Z,1.97
2023-03-17T15:09:04.433Z,2.90
2023-03-17T15:14:16.173Z,1.60
2023-03-17T15:19:39.349Z,2.37
2023-03-17T15:24:43.904Z,1.53
2023-03-17T15:29:46.472Z,1.73
2023-03-17T15:34:49.910Z,2.23
2023-03-17T15:39:53.757Z,1.23
2023-03-17T15:44:55.515Z,3.67
2023-03-17T15:50:13.196Z,2.27
2023-03-17T15:55:31.973Z,1.57
2023-03-17T16:00:35.106Z,3.40
2023-03-17T16:05:36.838Z,1.77
2023-03-17T16:10:38.493Z,2.33
2023-03-17T16:15:42.946Z,2.77
2023-03-17T16:20:49.312Z,1.80
2023-03-17T16:31:21.659Z,3.23
2023-03-17T16:36:25.130Z,2.00
2023-03-17T16:41:27.888Z,2.77
2023-03-17T16:46:34.791Z,2.47
2023-03-17T16:51:37.954Z,1.70
2023-03-17T16:56:41.008Z,2.70
2023-03-17T17:01:42.612Z,2.67
2023-03-17T17:06:44.536Z,3.70
2023-03-17T17:11:46.609Z,2.07
2023-03-17T17:16:48.506Z,3.43
2023-03-17T17:21:50.328Z,2.73
2023-03-17T17:26:52.377Z,3.43
2023-03-17T17:31:54.344Z,2.77
2023-03-17T17:36:56.514Z,1.80
2023-03-17T17:41:58.572Z,5.33
2023-03-17T17:47:00.347Z,2.53
2023-03-17T17:52:02.119Z,3.17
2023-03-17T17:57:04.204Z,4.60
2023-03-17T18:02:06.525Z,4.23
2023-03-17T18:07:08.245Z,7.70
2023-03-17T18:12:10.044Z,4.45
2023-03-17T18:17:21.848Z,3.67
2023-03-17T18:22:23.584Z,14.13
2023-03-17T18:27:25.220Z,7.50
2023-03-17T18:32:35.565Z,3.97
2023-03-17T18:37:39.919Z,1.93
2023-03-17T18:42:42.878Z,2.23
2023-03-17T18:47:44.736Z,3.07
2023-03-17T18:52:46.463Z,1.73
2023-03-17T18:57:48.106Z,3.87
2023-03-17T19:02:49.712Z,3.07
2023-03-17T19:07:51.467Z,3.73
2023-03-17T19:12:53.438Z,1.73
2023-03-17T19:17:55.183Z,2.00
2023-03-17T19:22:57.345Z,2.83
2023-03-17T19:27:59.368Z,1.60
2023-03-17T19:33:02.162Z,2.97
2023-03-17T19:38:04.357Z,6.60
2023-03-17T19:43:06.454Z,5.93
2023-03-17T19:48:08.100Z,2.70
2023-03-17T19:53:09.754Z,2.30
2023-03-17T19:58:12.537Z,3.83
2023-03-17T20:03:14.940Z,2.37
2023-03-17T20:08:16.657Z,2.90
2023-03-17T20:13:19.411Z,3.47
2023-03-17T20:18:23.294Z,2.30
2023-03-17T20:23:25.343Z,2.60
2023-03-17T20:28:29.830Z,6.37
2023-03-17T20:33:33.498Z,4.13
2023-03-17T20:38:38.952Z,2.63
2023-03-17T20:43:43.733Z,2.33
2023-03-17T20:48:48.748Z,4.37
2023-03-17T20:53:50.450Z,5.03
2023-03-17T20:58:54.299Z,4.07
2023-03-17T21:03:55.987Z,4.50
2023-03-17T21:09:02.363Z,3.73
2023-03-17T21:14:07.030Z,6.00
2023-03-17T21:19:13.380Z,11.33
2023-03-17T21:24:31.319Z,4.97
2023-03-17T21:29:34.007Z,4.87
2023-03-17T21:34:37.337Z,3.27
2023-03-17T21:39:39.156Z,2.67
2023-03-17T21:44:40.945Z,3.27
2023-03-17T21:49:42.536Z,3.47
2023-03-17T21:54:45.343Z,3.20
2023-03-17T21:59:47.568Z,4.37
2023-03-17T22:04:50.330Z,4.07
2023-03-17T22:09:57.094Z,3.23
2023-03-17T22:14:59.455Z,5.53
2023-03-17T22:20:01.199Z,4.63
2023-03-17T22:25:05.627Z,3.27
2023-03-17T22:30:07.950Z,4.67
2023-03-17T22:35:10.505Z,3.97
2023-03-17T22:40:12.435Z,4.83
2023-03-17T22:45:16.170Z,4.17
2023-03-17T22:50:18.318Z,5.00
2023-03-17T22:55:20.347Z,3.73
2023-03-17T23:00:22.205Z,4.80
2023-03-17T23:05:24.520Z,3.37
2023-03-17T23:10:26.756Z,3.20
2023-03-17T23:15:28.615Z,3.63
2023-03-17T23:20:31.024Z,2.73
2023-03-17T23:25:33.467Z,3.43
2023-03-17T23:30:38.383Z,3.30
2023-03-17T23:35:40.681Z,3.43
2023-03-17T23:40:42.338Z,5.80
2023-03-17T23:45:54.176Z,4.13
2023-03-17T23:50:57.183Z,3.17
2023-03-17T23:55:59.774Z,4.20
